createdAt,value
2023-03-22T00:04:50.891Z,97051.31
2023-03-22T00:09:54.152Z,97050.00
2023-03-22T00:15:00.200Z,97048.44
2023-03-22T00:20:06.346Z,97048.91
2023-03-22T00:25:09.937Z,97040.66
2023-03-22T00:30:15.564Z,97031.91
2023-03-22T00:35:18.898Z,97037.88
2023-03-22T00:40:24.362Z,97030.22
2023-03-22T00:45:29.099Z,97044.09
2023-03-22T00:50:32.403Z,97045.41
2023-03-22T00:55:35.666Z,97044.97
2023-03-22T01:00:41.252Z,97040.16
2023-03-22T01:05:46.476Z,97033.38
2023-03-22T01:10:52.462Z,97042.31
2023-03-22T01:15:57.196Z,97034.31
2023-03-22T01:21:01.121Z,97041.28
2023-03-22T01:26:05.432Z,97040.16
2023-03-22T01:31:10.467Z,97047.88
2023-03-22T01:36:13.887Z,97040.19
2023-03-22T01:41:17.868Z,97051.53
2023-03-22T01:46:23.639Z,97039.34
2023-03-22T01:51:27.522Z,97025.44
2023-03-22T01:56:53.281Z,97028.44
2023-03-22T02:02:08.434Z,97014.56
2023-03-22T02:07:16.611Z,97015.09
2023-03-22T02:12:34.957Z,97016.97
2023-03-22T02:18:06.437Z,97009.53
2023-03-22T02:23:42.878Z,97014.41
2023-03-22T02:28:54.164Z,97005.94
2023-03-22T02:34:23.978Z,96999.44
2023-03-22T02:39:36.600Z,97000.91
2023-03-22T02:44:43.953Z,96997.88
2023-03-22T02:49:57.056Z,96984.09
2023-03-22T02:55:09.130Z,96994.00
2023-03-22T03:00:16.075Z,96995.88
2023-03-22T03:05:21.515Z,96997.53
2023-03-22T03:10:28.265Z,96997.91
2023-03-22T03:15:31.758Z,96992.44
2023-03-22T03:20:46.581Z,96994.63
2023-03-22T03:26:01.697Z,96997.13
2023-03-22T03:31:12.270Z,96989.53
2023-03-22T03:36:19.591Z,96991.03
2023-03-22T03:41:28.564Z,96993.41
2023-03-22T03:46:32.179Z,96975.53
2023-03-22T03:51:48.631Z,96974.03
2023-03-22T03:56:53.849Z,96979.94
2023-03-22T04:01:57.211Z,96996.00
2023-03-22T04:07:06.656Z,96986.00
2023-03-22T04:12:13.952Z,96981.56
2023-03-22T04:17:20.560Z,96987.28
2023-03-22T04:22:25.150Z,96984.03
2023-03-22T04:27:29.947Z,96975.38
2023-03-22T04:32:39.757Z,96968.56
2023-03-22T04:37:44.452Z,96965.94
2023-03-22T04:42:57.539Z,96965.41
2023-03-22T04:48:12.466Z,96955.94
2023-03-22T04:53:15.801Z,96950.72
2023-03-22T04:58:22.415Z,96950.50
2023-03-22T05:03:26.451Z,96929.56
2023-03-22T05:08:32.741Z,96923.16
2023-03-22T05:13:39.120Z,96920.16
2023-03-22T05:18:45.809Z,96926.06
2023-03-22T05:23:51.618Z,96920.88
2023-03-22T05:28:57.798Z,96930.91
2023-03-22T05:34:15.920Z,96925.28
2023-03-22T05:39:20.520Z,96919.00
2023-03-22T05:44:25.639Z,96925.69
2023-03-22T05:49:38.259Z,96923.69
2023-03-22T05:54:42.307Z,96917.81
2023-03-22T05:59:47.171Z,96925.41
2023-03-22T06:04:57.102Z,96920.50
2023-03-22T06:10:01.676Z,96932.78
2023-03-22T06:15:10.907Z,96940.59
2023-03-22T06:20:31.638Z,96943.22
2023-03-22T06:25:39.390Z,96926.72
2023-03-22T06:30:44.404Z,96931.16
2023-03-22T06:36:11.387Z,96940.09
2023-03-22T06:41:37.868Z,96934.63
2023-03-22T06:46:42.730Z,96942.25
2023-03-22T06:51:55.690Z,96932.81
2023-03-22T06:56:59.603Z,96939.06
2023-03-22T07:02:05.381Z,96939.06
2023-03-22T07:07:09.318Z,96932.56
2023-03-22T07:12:13.108Z,96927.47
2023-03-22T07:17:18.241Z,96924.88
2023-03-22T07:22:22.539Z,96917.72
2023-03-22T07:27:27.878Z,96923.03
2023-03-22T07:32:33.445Z,96912.59
2023-03-22T07:37:42.528Z,96920.84
2023-03-22T07:42:55.990Z,96909.63
2023-03-22T07:48:22.752Z,96908.47
2023-03-22T07:53:38.370Z,96910.81
2023-03-22T07:58:50.440Z,96903.09
2023-03-22T08:03:56.102Z,96898.44
2023-03-22T08:09:21.930Z,96900.69
2023-03-22T08:14:35.851Z,96901.47
2023-03-22T08:19:44.177Z,96918.31
2023-03-22T08:24:50.703Z,96910.25
2023-03-22T08:30:02.816Z,96901.09
2023-03-22T08:35:10.645Z,96910.56
2023-03-22T08:40:14.557Z,96890.94
2023-03-22T08:45:22.868Z,96892.91
2023-03-22T08:50:36.227Z,96887.84
2023-03-22T08:55:49.799Z,96885.59
2023-03-22T09:01:21.387Z,96878.91
2023-03-22T09:06:31.488Z,96869.25
2023-03-22T09:11:37.228Z,96871.94
2023-03-22T09:16:40.770Z,96866.34
2023-03-22T09:21:45.605Z,96861.38
2023-03-22T09:26:54.620Z,96856.84
2023-03-22T09:31:58.031Z,96842.88
2023-03-22T09:37:08.416Z,96854.66
2023-03-22T09:42:33.930Z,96840.69
2023-03-22T09:47:45.402Z,96843.16
2023-03-22T09:52:51.570Z,96833.47
2023-03-22T09:58:04.116Z,96817.28
2023-03-22T10:03:18.229Z,96832.75
2023-03-22T10:08:34.395Z,96828.97
2023-03-22T10:13:46.775Z,96833.09
2023-03-22T10:18:53.298Z,96826.28
2023-03-22T10:24:02.123Z,96814.97
2023-03-22T10:29:13.983Z,96812.66
2023-03-22T10:34:22.391Z,96803.88
2023-03-22T10:39:33.913Z,96804.34
2023-03-22T10:44:45.894Z,96786.41
2023-03-22T10:49:55.180Z,96782.09
2023-03-22T10:55:04.190Z,96792.16
2023-03-22T11:00:11.659Z,96794.19
2023-03-22T11:05:23.057Z,96788.44
2023-03-22T11:10:30.145Z,96785.91
2023-03-22T11:15:35.992Z,96783.34
2023-03-22T11:20:42.115Z,96782.69
2023-03-22T11:25:49.845Z,96776.28
2023-03-22T11:31:05.714Z,96790.66
2023-03-22T11:36:18.001Z,96778.59
2023-03-22T11:41:26.902Z,96766.25
2023-03-22T11:46:31.350Z,96771.84
2023-03-22T11:51:37.100Z,96754.41
2023-03-22T11:56:44.734Z,96754.56
2023-03-22T12:01:52.443Z,96747.94
2023-03-22T12:06:59.872Z,96733.44
2023-03-22T12:12:07.859Z,96734.44
2023-03-22T12:17:16.859Z,96730.59
2023-03-22T12:22:24.140Z,96735.75
2023-03-22T12:27:34.192Z,96726.47
2023-03-22T12:32:41.863Z,96726.13
2023-03-22T12:37:48.348Z,96720.44
2023-03-22T12:43:01.643Z,96716.28
2023-03-22T12:48:09.384Z,96720.28
2023-03-22T12:53:16.363Z,96710.13
2023-03-22T12:58:23.466Z,96710.72
2023-03-22T13:03:29.367Z,96704.78
2023-03-22T13:09:13.222Z,96695.19
2023-03-22T13:14:49.657Z,96708.38
2023-03-22T13:19:55.301Z,96690.66
2023-03-22T13:25:13.717Z,96691.03
2023-03-22T13:30:24.348Z,96691.53
2023-03-22T13:35:35.672Z,96685.09
2023-03-22T13:40:47.542Z,96679.00
2023-03-22T13:46:28.186Z,96664.47
2023-03-22T13:51:33.794Z,96661.56
2023-03-22T13:56:52.956Z,96673.34
2023-03-22T14:02:00.633Z,96671.03
2023-03-22T14:07:14.974Z,96663.69
2023-03-22T14:12:22.925Z,96654.22
2023-03-22T14:17:36.274Z,96650.66
